Time;durP1;ratioP1;P1;durP2;ratioP2;P2;SDS_P1;SDS_P2;PMS_P1;PMS_P2;Temp;Humidity;BMP_temperature;BMP_pressure;BME280_temperature;BME280_humidity;BME280_pressure;Samples;Min_cycle;Max_cycle;Signal;HPM_P1;HPM_P2
2022/08/17 13:36:48;;;;;;;6.50;3.50;;;;;;;18.48;100.00;99136.16;5080203;27;20378;-86
2022/08/17 13:39:27;;;;;;;5.85;2.90;;;;;;;18.94;100.00;99127.97;5076151;28;20024;-87
2022/08/17 13:41:54;;;;;;;8.00;3.58;;;;;;;19.52;100.00;99139.00;5058353;28;20099;-88
2022/08/17 13:44:38;;;;;;;10.30;4.22;;;;;;;20.03;100.00;99137.88;5073119;28;20036;-87
2022/08/17 13:47:15;;;;;;;9.38;3.25;;;;;;;20.21;100.00;99135.88;5061364;28;20020;-86
2022/08/17 13:49:44;;;;;;;4.65;3.15;;;;;;;20.37;100.00;99132.25;5058506;28;20060;-86
2022/08/17 13:52:33;;;;;;;6.18;3.13;;;;;;;20.28;100.00;99136.47;5077280;28;20024;-86
2022/08/17 13:55:03;;;;;;;6.63;3.25;;;;;;;20.39;100.00;99135.47;5066045;28;20031;-89
2022/08/17 13:57:30;;;;;;;8.70;3.40;;;;;;;20.92;100.00;99125.88;5063009;28;20040;-88
2022/08/17 14:00:11;;;;;;;10.93;3.80;;;;;;;21.09;100.00;99110.47;5081755;28;20493;-86
2022/08/17 14:02:37;;;;;;;7.70;3.53;;;;;;;21.14;100.00;99136.38;5072106;28;20486;-86
2022/08/17 14:05:06;;;;;;;6.75;3.70;;;;;;;21.20;100.00;99137.19;5065024;28;20416;-86
2022/08/17 14:07:35;;;;;;;6.53;3.72;;;;;;;21.24;100.00;99144.44;5057352;28;20036;-87
2022/08/17 14:10:12;;;;;;;4.70;3.30;;;;;;;21.16;100.00;99139.59;5059817;28;20385;-87
2022/08/17 14:12:41;;;;;;;6.78;3.25;;;;;;;20.91;100.00;99141.09;5075969;28;20024;-88
2022/08/17 14:15:08;;;;;;;7.15;3.38;;;;;;;20.55;100.00;99132.91;5077423;28;20124;-86
2022/08/17 14:17:34;;;;;;;6.25;3.67;;;;;;;19.69;100.00;99130.13;5084438;28;20037;-87
2022/08/17 14:19:59;;;;;;;5.68;3.08;;;;;;;20.72;100.00;99131.91;5071527;28;20475;-88
2022/08/17 14:22:29;;;;;;;6.88;3.72;;;;;;;21.04;100.00;99134.47;5072574;28;20031;-86
2022/08/17 14:24:58;;;;;;;9.93;3.72;;;;;;;20.88;100.00;99136.28;5079265;28;20103;-86
2022/08/17 14:27:32;;;;;;;4.90;3.63;;;;;;;21.02;100.00;99135.78;5058696;28;20024;-86
2022/08/17 14:29:58;;;;;;;8.30;3.90;;;;;;;21.20;100.00;99132.66;5057498;28;20036;-87
2022/08/17 14:32:27;;;;;;;5.45;3.80;;;;;;;21.13;100.00;99137.44;5075560;28;20108;-88
2022/08/17 14:34:55;;;;;;;6.10;3.63;;;;;;;21.03;100.00;99134.72;5075106;28;20044;-86
2022/08/17 14:37:25;;;;;;;8.38;3.53;;;;;;;20.84;100.00;99127.22;5063657;28;20032;-86
2022/08/17 14:40:05;;;;;;;6.30;3.28;;;;;;;20.88;100.00;99138.16;5084096;28;20028;-87
2022/08/17 14:42:34;;;;;;;6.85;3.28;;;;;;;21.05;100.00;99135.28;5074156;28;20479;-86
2022/08/17 14:45:04;;;;;;;6.97;3.55;;;;;;;20.96;100.00;99132.31;5057208;28;20116;-85
2022/08/17 14:47:31;;;;;;;3.90;3.33;;;;;;;20.62;100.00;99133.44;5066096;28;20032;-87
2022/08/17 14:49:58;;;;;;;5.05;2.80;;;;;;;20.79;100.00;99127.13;5050992;28;20043;-86
2022/08/17 14:52:24;;;;;;;5.25;3.20;;;;;;;21.10;100.00;99141.44;5048422;28;20047;-88
2022/08/17 14:54:51;;;;;;;5.68;3.20;;;;;;;21.24;100.00;99149.78;5061158;28;20043;-86
2022/08/17 14:57:21;;;;;;;6.95;3.60;;;;;;;21.05;100.00;99145.97;5065633;28;20025;-86
2022/08/17 14:59:48;;;;;;;6.25;3.28;;;;;;;21.03;100.00;99132.06;5061265;28;20041;-86
2022/08/17 15:02:14;;;;;;;4.95;3.22;;;;;;;21.24;100.00;99141.75;5063116;28;20102;-87
2022/08/17 15:04:46;;;;;;;7.65;3.10;;;;;;;21.47;100.00;99126.31;5063697;28;20029;-87
2022/08/17 15:07:12;;;;;;;4.88;3.47;;;;;;;21.61;100.00;99133.81;5062292;28;20111;-86
2022/08/17 15:09:38;;;;;;;8.73;3.70;;;;;;;22.10;100.00;99138.66;5049888;28;20501;-87
2022/08/17 15:12:06;;;;;;;6.28;2.90;;;;;;;22.17;100.00;99126.88;5060414;28;20025;-87
2022/08/17 15:14:34;;;;;;;6.97;3.33;;;;;;;22.19;100.00;99127.41;5059490;28;20146;-87
2022/08/17 15:17:00;;;;;;;5.20;3.47;;;;;;;21.81;100.00;99135.72;5048557;28;20039;-86
2022/08/17 15:19:26;;;;;;;6.63;3.22;;;;;;;21.67;100.00;99124.78;5065313;28;20115;-86
2022/08/17 15:21:52;;;;;;;10.40;3.03;;;;;;;21.61;100.00;99128.47;5060077;28;20523;-86
2022/08/17 15:24:17;;;;;;;8.52;3.42;;;;;;;21.48;100.00;99138.59;5046557;28;20039;-88
2022/08/17 15:26:43;;;;;;;7.40;2.95;;;;;;;21.37;100.00;99126.28;5065256;28;20051;-88
2022/08/17 15:29:11;;;;;;;5.65;3.00;;;;;;;21.17;100.00;99125.16;5063102;28;20060;-88
2022/08/17 15:31:37;;;;;;;5.05;2.80;;;;;;;21.33;100.00;99125.22;5065569;28;20506;-88
2022/08/17 15:34:04;;;;;;;4.72;2.88;;;;;;;21.50;100.00;99123.13;5065118;28;20028;-87
2022/08/17 15:36:30;;;;;;;4.63;2.78;;;;;;;21.50;100.00;99128.47;5058939;28;20045;-89
2022/08/17 15:38:57;;;;;;;5.22;3.10;;;;;;;21.48;100.00;99132.44;5043540;28;20032;-87
2022/08/17 15:41:26;;;;;;;7.63;3.20;;;;;;;21.32;100.00;99127.09;5048000;28;20525;-87
2022/08/17 15:43:53;;;;;;;7.03;2.85;;;;;;;21.40;100.00;99139.09;5045179;28;20620;-88
2022/08/17 15:46:21;;;;;;;3.05;2.55;;;;;;;21.06;100.00;99132.34;5057692;28;20417;-88
2022/08/17 15:49:14;;;;;;;7.05;2.80;;;;;;;21.11;100.00;99132.34;5049597;28;20437;-88
2022/08/17 15:51:39;;;;;;;7.93;2.65;;;;;;;21.23;100.00;99142.00;5059173;28;20082;-87
2022/08/17 15:54:09;;;;;;;8.13;2.67;;;;;;;21.25;100.00;99134.53;5046503;28;20036;-86
2022/08/17 15:56:35;;;;;;;4.55;2.63;;;;;;;21.32;100.00;99129.78;5064210;28;20398;-89
2022/08/17 15:59:00;;;;;;;6.28;3.30;;;;;;;21.60;100.00;99134.88;5054548;28;20021;-89
2022/08/17 16:01:27;;;;;;;4.10;2.88;;;;;;;21.46;100.00;99129.25;5068270;28;20482;-86
2022/08/17 16:03:56;;;;;;;5.00;2.78;;;;;;;21.43;100.00;99143.94;5059972;28;20039;-86
2022/08/17 16:06:26;;;;;;;5.07;2.83;;;;;;;21.39;100.00;99138.31;5041118;28;20028;-87
2022/08/17 16:08:55;;;;;;;5.22;2.70;;;;;;;21.35;100.00;99147.94;5066257;28;20033;-87
2022/08/17 16:11:21;;;;;;;7.15;2.60;;;;;;;21.32;100.00;99134.28;5046721;28;20398;-87
2022/08/17 16:13:47;;;;;;;5.72;2.88;;;;;;;21.28;100.00;99144.69;5060160;28;20036;-87
2022/08/17 16:16:16;;;;;;;3.92;2.65;;;;;;;20.90;100.00;99138.69;5042783;28;20486;-86
2022/08/17 16:18:42;;;;;;;4.70;2.47;;;;;;;20.93;100.00;99143.50;5045662;28;20025;-87
2022/08/17 16:21:25;;;;;;;4.40;2.53;;;;;;;20.83;100.00;99138.91;5047557;28;20510;-89
2022/08/17 16:24:01;;;;;;;4.70;2.75;;;;;;;20.98;100.00;99141.66;5051714;28;20037;-87
2022/08/17 16:26:29;;;;;;;6.10;2.70;;;;;;;20.90;100.00;99149.34;5050532;28;20047;-89
2022/08/17 16:28:56;;;;;;;4.28;2.78;;;;;;;21.03;100.00;99130.22;5050272;28;20027;-87
2022/08/17 16:31:22;;;;;;;13.00;3.17;;;;;;;21.15;100.00;99140.66;5060085;28;20025;-87
2022/08/17 16:33:49;;;;;;;3.95;3.00;;;;;;;21.32;100.00;99143.13;5066403;28;20117;-86
2022/08/17 16:36:16;;;;;;;7.85;2.65;;;;;;;21.20;100.00;99138.00;5066801;28;20120;-86
2022/08/17 16:38:42;;;;;;;5.53;3.10;;;;;;;21.31;100.00;99148.72;5063524;28;20032;-88
2022/08/17 16:45:22;;;;;;;4.32;2.72;;;;;;;21.17;100.00;99133.19;5064353;28;20051;-87
2022/08/17 16:47:49;;;;;;;5.38;2.88;;;;;;;21.09;100.00;99125.69;5039884;28;20040;-89
2022/08/17 16:50:18;;;;;;;9.38;4.35;;;;;;;20.95;100.00;99131.50;5066642;28;20482;-87
2022/08/17 16:52:48;;;;;;;5.22;3.25;;;;;;;20.87;100.00;99140.03;5043528;28;20033;-87
2022/08/17 16:55:17;;;;;;;5.03;2.97;;;;;;;20.77;100.00;99150.59;5059576;28;20031;-86
2022/08/17 16:57:43;;;;;;;9.32;2.78;;;;;;;20.81;100.00;99143.72;5065539;28;20029;-87
2022/08/17 17:00:11;;;;;;;7.63;3.13;;;;;;;20.72;100.00;99137.25;5064130;28;20497;-87
2022/08/17 17:02:40;;;;;;;5.10;2.75;;;;;;;20.75;100.00;99142.06;5061947;28;20115;-86
2022/08/17 17:05:30;;;;;;;4.88;2.88;;;;;;;20.72;100.00;99153.25;5043113;28;20037;-87
2022/08/17 17:08:07;;;;;;;5.97;2.72;;;;;;;20.63;100.00;99153.72;5040210;28;20033;-85
2022/08/17 17:10:41;;;;;;;3.95;2.60;;;;;;;20.52;100.00;99152.09;5059311;28;20392;-87
2022/08/17 17:13:14;;;;;;;5.18;2.70;;;;;;;20.38;100.00;99160.53;5041165;28;20097;-87
2022/08/17 17:15:57;;;;;;;4.43;2.40;;;;;;;20.20;100.00;99151.06;5068532;28;20028;-88
2022/08/17 17:18:37;;;;;;;4.07;2.60;;;;;;;20.19;100.00;99159.31;5067158;28;20456;-86
2022/08/17 17:25:48;;;;;;;4.82;2.83;;;;;;;20.19;100.00;99161.97;5028225;28;20557;-88
2022/08/17 17:28:39;;;;;;;5.15;2.60;;;;;;;20.00;100.00;99143.72;5046931;28;20061;-87
2022/08/17 17:32:01;;;;;;;6.35;2.80;;;;;;;20.01;100.00;99150.66;5060560;28;20044;-88
2022/08/17 17:34:33;;;;;;;4.75;2.83;;;;;;;20.08;100.00;99166.44;5043037;28;20490;-88
2022/08/17 17:37:04;;;;;;;5.22;3.00;;;;;;;19.93;100.00;99165.22;5066108;28;20043;-86
2022/08/17 17:39:49;;;;;;;4.20;2.83;;;;;;;19.82;100.00;99169.63;5045046;28;20063;-88
2022/08/17 17:42:20;;;;;;;7.63;3.40;;;;;;;19.88;100.00;99172.38;5043340;28;20075;-86
2022/08/17 17:45:11;;;;;;;7.68;3.20;;;;;;;19.87;100.00;99176.09;5045697;28;20507;-88
2022/08/17 17:47:37;;;;;;;6.00;3.20;;;;;;;19.61;100.00;99170.50;5067380;28;20028;-87
2022/08/17 17:50:05;;;;;;;8.50;2.95;;;;;;;19.62;100.00;99175.59;5059712;28;20109;-87
2022/08/17 17:53:00;;;;;;;6.18;3.38;;;;;;;19.60;100.00;99163.56;5063281;28;20076;-88
2022/08/17 17:56:00;;;;;;;6.88;2.78;;;;;;;19.70;100.00;99171.66;5042564;28;20091;-88
2022/08/17 17:58:47;;;;;;;7.32;2.75;;;;;;;19.70;100.00;99169.00;5044053;28;20067;-88
2022/08/17 18:01:29;;;;;;;7.72;3.10;;;;;;;19.62;100.00;99182.75;5065372;28;20500;-87
2022/08/17 18:03:57;;;;;;;5.45;2.72;;;;;;;19.36;100.00;99177.16;5059212;28;20075;-87
2022/08/17 18:07:00;;;;;;;7.47;2.80;;;;;;;19.43;100.00;99174.31;5056885;28;20029;-87
2022/08/17 18:09:44;;;;;;;7.28;3.28;;;;;;;19.31;100.00;99174.47;5055245;28;20360;-88
2022/08/17 18:12:36;;;;;;;8.25;3.97;;;;;;;19.33;100.00;99169.69;5060811;28;20029;-88
2022/08/17 18:15:36;;;;;;;9.93;5.57;;;;;;;18.98;100.00;99172.47;5043733;28;20132;-89
2022/08/17 18:18:13;;;;;;;13.50;6.55;;;;;;;18.97;100.00;99170.84;5061713;28;20037;-87
2022/08/17 18:20:40;;;;;;;11.07;4.78;;;;;;;18.91;100.00;99181.66;5056624;28;20025;-87
2022/08/17 18:23:06;;;;;;;9.45;5.72;;;;;;;18.91;100.00;99174.50;5064632;28;20036;-87
2022/08/17 18:25:51;;;;;;;7.15;3.63;;;;;;;18.91;100.00;99184.31;5060574;28;20086;-87
2022/08/17 18:28:30;;;;;;;6.75;3.47;;;;;;;18.77;100.00;99176.72;5048835;28;20040;-89
2022/08/17 18:31:18;;;;;;;6.45;3.45;;;;;;;18.91;100.00;99182.47;5068911;28;20029;-87
2022/08/17 18:33:47;;;;;;;7.25;3.78;;;;;;;18.93;100.00;99185.69;5065483;28;20091;-86
2022/08/17 18:36:26;;;;;;;5.15;2.90;;;;;;;18.92;100.00;99189.41;5055291;28;20115;-87
2022/08/17 18:39:09;;;;;;;7.72;3.72;;;;;;;18.90;100.00;99180.03;5044136;28;20024;-87
2022/08/17 18:41:47;;;;;;;9.73;3.88;;;;;;;18.85;100.00;99172.78;5064316;28;20043;-86
2022/08/17 18:44:30;;;;;;;9.45;4.35;;;;;;;18.94;100.00;99181.97;5059831;28;20150;-87
2022/08/17 18:47:14;;;;;;;6.47;3.75;;;;;;;18.90;100.00;99186.19;5064237;28;20410;-87
2022/08/17 18:49:52;;;;;;;10.18;4.60;;;;;;;18.79;100.00;99184.41;5061692;28;20025;-86
2022/08/17 18:52:29;;;;;;;14.30;4.15;;;;;;;18.80;100.00;99191.34;5064034;28;20071;-88
2022/08/17 18:55:22;;;;;;;8.48;4.95;;;;;;;18.68;100.00;99178.16;5045581;28;20127;-88
2022/08/17 18:57:47;;;;;;;8.18;4.38;;;;;;;18.70;100.00;99192.00;5038316;28;20051;-88
2022/08/17 19:00:30;;;;;;;7.22;3.30;;;;;;;18.69;100.00;99188.56;5047074;28;20119;-87
2022/08/17 19:03:00;;;;;;;8.07;4.18;;;;;;;18.70;100.00;99195.50;5046991;28;20509;-85
2022/08/17 19:05:36;;;;;;;13.40;5.00;;;;;;;18.61;100.00;99199.59;5065298;28;20025;-86
2022/08/17 19:08:28;;;;;;;8.65;5.00;;;;;;;18.63;100.00;99191.38;5067203;28;21364;-86
2022/08/17 19:11:06;;;;;;;7.15;4.15;;;;;;;18.64;100.00;99206.28;5039450;28;20044;-86
2022/08/17 19:13:53;;;;;;;8.50;4.35;;;;;;;18.63;100.00;99210.78;5066929;28;20139;-85
2022/08/17 19:16:22;;;;;;;16.92;8.63;;;;;;;18.55;100.00;99212.00;5072348;28;20094;-87
2022/08/17 19:18:57;;;;;;;11.10;5.97;;;;;;;18.60;100.00;99205.97;5047075;28;20032;-87
2022/08/17 19:21:40;;;;;;;33.85;17.42;;;;;;;18.64;100.00;99216.91;5043133;28;20395;-88
2022/08/17 19:24:22;;;;;;;;;;;;;;;18.65;100.00;99221.97;5060825;28;20025;-86
2022/08/17 19:26:55;;;;;;;7.30;4.63;;;;;;;18.61;100.00;99215.53;5042287;28;19916;-87
2022/08/17 19:29:33;;;;;;;11.90;4.13;;;;;;;18.61;100.00;99220.84;5049485;28;20041;-87
2022/08/17 19:31:59;;;;;;;10.27;4.15;;;;;;;18.54;100.00;99220.22;5051653;28;20030;-86
2022/08/17 19:34:31;;;;;;;8.05;4.38;;;;;;;18.59;100.00;99222.97;5064800;28;20029;-88
2022/08/17 19:37:23;;;;;;;9.35;4.32;;;;;;;18.52;100.00;99227.66;5071823;28;20442;-86
2022/08/17 19:40:08;;;;;;;7.68;3.65;;;;;;;18.38;100.00;99230.63;5041238;28;20075;-87
2022/08/17 19:43:00;;;;;;;7.13;3.50;;;;;;;18.34;100.00;99234.00;5060289;28;20033;-86
2022/08/17 19:45:51;;;;;;;8.90;3.97;;;;;;;18.29;100.00;99218.78;5082714;28;20021;-87
2022/08/17 19:48:29;;;;;;;9.95;3.83;;;;;;;18.37;100.00;99231.66;5081887;28;20036;-87
2022/08/17 19:51:03;;;;;;;10.13;4.20;;;;;;;18.28;100.00;99219.84;5079665;28;20021;-86
2022/08/17 19:53:56;;;;;;;11.88;3.67;;;;;;;18.24;100.00;99224.00;5071934;28;20046;-86
2022/08/17 19:56:46;;;;;;;9.10;3.90;;;;;;;18.25;100.00;99218.47;5049807;28;20033;-87
2022/08/17 20:00:00;;;;;;;9.60;3.80;;;;;;;18.25;100.00;99220.28;5047042;28;20491;-87
2022/08/17 20:02:32;;;;;;;7.05;3.60;;;;;;;18.23;100.00;99225.88;5032651;28;20052;-87
2022/08/17 20:05:04;;;;;;;9.60;3.15;;;;;;;18.21;100.00;99238.59;5046410;28;20043;-86
2022/08/17 20:07:58;;;;;;;12.93;4.22;;;;;;;18.21;100.00;99235.09;5067671;28;20502;-86
2022/08/17 20:10:37;;;;;;;8.13;3.63;;;;;;;18.24;100.00;99234.63;5064900;28;20025;-86
2022/08/17 20:13:08;;;;;;;11.15;4.07;;;;;;;18.25;100.00;99236.22;5049148;28;20033;-87
2022/08/17 20:15:38;;;;;;;8.85;3.50;;;;;;;18.23;100.00;99231.19;5065650;28;20027;-86
2022/08/17 20:18:09;;;;;;;9.32;3.90;;;;;;;18.27;100.00;99236.81;5065740;28;20029;-86
2022/08/17 20:20:54;;;;;;;9.50;4.20;;;;;;;18.24;100.00;99229.31;5045677;28;20045;-87
2022/08/17 20:23:48;;;;;;;11.45;4.45;;;;;;;18.28;100.00;99227.81;5057848;28;20116;-86
2022/08/17 20:26:22;;;;;;;9.57;4.32;;;;;;;18.20;100.00;99228.19;5062237;28;20035;-87
2022/08/17 20:29:14;;;;;;;11.30;4.97;;;;;;;18.21;100.00;99224.47;5058721;28;20391;-87
2022/08/17 20:31:54;;;;;;;10.23;4.25;;;;;;;18.23;100.00;99230.38;5060146;28;20029;-87
2022/08/17 20:34:27;;;;;;;8.63;4.10;;;;;;;18.22;100.00;99234.06;5056433;28;20037;-86
2022/08/17 20:37:16;;;;;;;11.07;4.28;;;;;;;18.18;100.00;99222.31;5067931;28;20406;-86
2022/08/17 20:40:04;;;;;;;11.80;4.43;;;;;;;18.12;100.00;99214.25;5044142;28;20059;-86
2022/08/17 20:42:32;;;;;;;11.18;4.35;;;;;;;18.15;100.00;99218.28;5060626;28;20032;-87
2022/08/17 20:45:22;;;;;;;9.80;4.00;;;;;;;18.15;100.00;99217.47;5058995;28;20040;-87
2022/08/17 20:47:55;;;;;;;16.13;4.60;;;;;;;18.14;100.00;99221.97;5010344;28;20050;-87
2022/08/17 20:50:50;;;;;;;9.40;4.32;;;;;;;18.11;100.00;99217.16;5061834;28;20056;-87
2022/08/17 20:53:48;;;;;;;11.00;4.03;;;;;;;18.09;100.00;99214.75;5059407;28;20053;-86
2022/08/17 20:56:42;;;;;;;12.18;4.05;;;;;;;18.08;100.00;99215.78;5037830;28;20045;-86
2022/08/17 20:59:24;;;;;;;9.93;3.95;;;;;;;18.06;100.00;99207.25;5060614;28;20085;-87
2022/08/17 21:02:05;;;;;;;9.23;3.78;;;;;;;18.06;100.00;99209.88;5041039;28;20083;-87
2022/08/17 21:04:49;;;;;;;6.25;3.42;;;;;;;18.06;100.00;99203.78;5061836;28;20028;-87
2022/08/17 21:07:46;;;;;;;8.73;3.17;;;;;;;17.97;100.00;99200.69;5062444;28;20044;-88
2022/08/17 21:10:14;;;;;;;9.05;3.78;;;;;;;17.94;100.00;99209.13;5042406;28;20044;-87
2022/08/17 21:12:56;;;;;;;11.27;4.13;;;;;;;17.88;100.00;99205.56;5040478;28;20039;-86
2022/08/17 21:15:41;;;;;;;8.13;3.70;;;;;;;17.80;100.00;99190.84;5040013;28;20171;-87
2022/08/17 21:18:22;;;;;;;10.38;4.53;;;;;;;17.87;100.00;99201.31;5062679;28;20028;-86
2022/08/17 21:21:14;;;;;;;8.35;3.67;;;;;;;17.82;100.00;99190.59;5057249;28;20037;-87
2022/08/17 21:23:54;;;;;;;8.63;3.70;;;;;;;17.85;100.00;99193.56;5062953;28;20025;-87
2022/08/17 21:26:44;;;;;;;9.25;3.55;;;;;;;17.80;100.00;99188.19;5061721;28;20036;-86
2022/08/17 21:29:17;;;;;;;8.27;4.15;;;;;;;17.74;100.00;99186.50;5046476;28;20063;-87
2022/08/17 21:32:03;;;;;;;9.75;3.97;;;;;;;17.76;100.00;99192.38;5042427;28;20178;-88
2022/08/17 21:34:43;;;;;;;7.25;3.70;;;;;;;17.60;100.00;99177.19;5060823;28;20040;-86
2022/08/17 21:37:17;;;;;;;7.00;3.20;;;;;;;17.68;100.00;99193.56;5064104;28;20029;-87
2022/08/17 21:39:49;;;;;;;9.27;3.85;;;;;;;17.75;100.00;99198.72;5059359;28;20040;-87
2022/08/17 21:42:15;;;;;;;6.78;3.20;;;;;;;17.81;100.00;99199.63;5044883;28;20029;-86
2022/08/17 21:44:51;;;;;;;8.52;3.70;;;;;;;17.79;100.00;99205.16;5062841;28;20061;-87
2022/08/17 21:47:23;;;;;;;6.85;3.20;;;;;;;17.78;100.00;99195.59;5043371;28;20025;-87
2022/08/17 21:50:23;;;;;;;11.75;3.70;;;;;;;17.77;100.00;99196.63;5059946;28;20047;-87
2022/08/17 21:52:54;;;;;;;8.63;3.10;;;;;;;17.77;100.00;99195.81;5043813;28;20028;-87
2022/08/17 21:55:27;;;;;;;9.65;4.45;;;;;;;17.79;100.00;99201.72;5061311;28;20024;-86
2022/08/17 21:57:56;;;;;;;13.10;4.88;;;;;;;17.67;100.00;99191.94;5066967;28;20021;-86
2022/08/17 22:00:28;;;;;;;11.20;4.30;;;;;;;17.69;100.00;99189.84;5061549;28;20079;-87
2022/08/17 22:02:57;;;;;;;10.18;3.83;;;;;;;17.73;100.00;99202.66;5065739;28;20437;-87
2022/08/17 22:05:39;;;;;;;9.43;4.40;;;;;;;17.72;100.00;99204.50;5052882;28;20102;-87
2022/08/17 22:08:17;;;;;;;8.68;4.43;;;;;;;17.68;100.00;99198.03;5059451;28;20037;-86
2022/08/17 22:10:47;;;;;;;11.75;4.97;;;;;;;17.66;100.00;99206.25;5048579;28;20036;-86
2022/08/17 22:13:15;;;;;;;10.75;4.53;;;;;;;17.67;100.00;99201.75;5061429;28;20028;-87
2022/08/17 22:15:46;;;;;;;8.73;4.50;;;;;;;17.59;100.00;99192.34;5066433;28;20424;-87
2022/08/17 22:18:23;;;;;;;11.93;5.20;;;;;;;17.68;100.00;99201.50;5068185;28;20413;-88
2022/08/17 22:20:57;;;;;;;9.45;4.55;;;;;;;17.71;100.00;99200.25;5066491;28;20442;-86
2022/08/17 22:26:45;;;;;;;9.68;5.70;;;;;;;17.58;100.00;99208.47;5065253;28;20028;-87
2022/08/17 22:29:41;;;;;;;10.13;5.20;;;;;;;17.73;100.00;99194.69;5045079;28;20494;-86
2022/08/17 22:32:07;;;;;;;11.52;4.65;;;;;;;17.84;100.00;99201.78;5042692;28;20383;-87
2022/08/17 22:34:33;;;;;;;10.63;4.55;;;;;;;17.74;100.00;99190.97;5044894;28;20082;-86
2022/08/17 22:37:19;;;;;;;10.30;4.32;;;;;;;17.80;100.00;99212.06;5069464;28;20032;-87
2022/08/17 22:39:57;;;;;;;8.63;4.22;;;;;;;17.73;100.00;99206.13;5049699;28;20060;-87
2022/08/17 22:42:24;;;;;;;9.98;4.22;;;;;;;17.59;100.00;99210.09;5049296;28;20033;-87
2022/08/17 22:44:50;;;;;;;14.43;3.88;;;;;;;17.47;100.00;99212.78;5051115;28;20123;-86
2022/08/17 22:47:17;;;;;;;6.63;3.40;;;;;;;17.40;100.00;99224.34;5068681;28;20100;-86
2022/08/17 22:49:53;;;;;;;9.50;3.58;;;;;;;17.33;100.00;99209.59;5052765;28;20483;-86
2022/08/17 22:52:32;;;;;;;8.85;3.20;;;;;;;17.37;100.00;99222.13;5064760;28;20024;-87
2022/08/17 23:01:16;;;;;;;9.10;3.67;;;;;;;17.24;100.00;99209.94;5063447;28;20041;-87
2022/08/17 23:04:23;;;;;;;6.50;3.72;;;;;;;17.27;100.00;99209.47;5065660;28;20032;-87
2022/08/17 23:06:48;;;;;;;7.75;4.65;;;;;;;17.55;100.00;99207.91;5037355;28;20052;-87
2022/08/17 23:09:14;;;;;;;13.65;5.10;;;;;;;17.55;100.00;99209.75;5063094;28;20037;-88
2022/08/17 23:11:43;;;;;;;12.05;5.10;;;;;;;17.62;100.00;99199.00;5050616;28;20128;-86
2022/08/17 23:14:12;;;;;;;9.82;5.05;;;;;;;17.64;100.00;99216.31;5066183;28;20033;-87
2022/08/17 23:16:43;;;;;;;12.88;4.95;;;;;;;17.60;100.00;99211.69;5052226;28;20154;-86
2022/08/17 23:19:11;;;;;;;9.95;4.30;;;;;;;17.63;100.00;99206.72;5048723;28;20039;-87
2022/08/17 23:21:37;;;;;;;10.27;4.75;;;;;;;17.49;100.00;99200.91;5061326;28;20036;-86
2022/08/17 23:24:07;;;;;;;9.70;4.75;;;;;;;17.47;100.00;99197.66;5061365;28;20033;-87
2022/08/17 23:26:39;;;;;;;10.05;5.18;;;;;;;17.45;100.00;99191.78;5067500;28;20085;-86
2022/08/17 23:29:05;;;;;;;10.18;4.40;;;;;;;17.50;100.00;99207.81;5070490;28;20033;-87
2022/08/17 23:31:33;;;;;;;10.73;4.47;;;;;;;17.63;100.00;99212.03;5067405;28;20474;-85
2022/08/17 23:34:04;;;;;;;8.52;5.18;;;;;;;17.64;100.00;99205.69;5049681;28;20029;-85
2022/08/17 23:36:30;;;;;;;12.20;6.88;;;;;;;17.66;100.00;99205.44;5061073;28;20116;-87
2022/08/17 23:38:56;;;;;;;14.63;7.68;;;;;;;17.58;100.00;99192.56;5066384;28;20039;-85
2022/08/17 23:41:25;;;;;;;13.63;7.30;;;;;;;17.62;100.00;99205.13;5064984;28;20024;-86
2022/08/17 23:43:51;;;;;;;10.68;6.85;;;;;;;17.67;100.00;99215.00;5043343;28;20033;-88
2022/08/17 23:46:21;;;;;;;12.73;7.63;;;;;;;17.69;100.00;99220.91;5050803;28;20071;-87
2022/08/17 23:48:52;;;;;;;15.32;7.85;;;;;;;17.69;100.00;99208.44;5047400;28;20024;-87
2022/08/17 23:51:22;;;;;;;15.23;7.55;;;;;;;17.62;100.00;99206.97;5066148;28;20033;-87
2022/08/17 23:53:54;;;;;;;11.95;6.95;;;;;;;17.62;100.00;99204.31;5064255;28;20068;-86
2022/08/17 23:56:25;;;;;;;14.25;7.90;;;;;;;17.49;100.00;99192.94;5062292;28;20036;-85
2022/08/17 23:58:53;;;;;;;13.93;7.45;;;;;;;17.59;100.00;99210.09;5063608;28;20036;-87
